Time;durP1;ratioP1;P1;durP2;ratioP2;P2;SDS_P1;SDS_P2;PMS_P1;PMS_P2;Temp;Humidity;BMP_temperature;BMP_pressure;BME280_temperature;BME280_humidity;BME280_pressure;Samples;Min_cycle;Max_cycle;Signal;HPM_P1;HPM_P2
2021/12/06 00:00:58;;;;;;;;;;;;;;;-143.90;100.00;55585.81;2073823;28;19964;-64
2021/12/06 00:02:20;;;;;;;;;;;;;;;-143.90;100.00;55607.66;2069412;28;19968;-64
2021/12/06 00:03:43;;;;;;;;;;;;;;;-143.90;100.00;55587.78;2081373;28;19921;-64
2021/12/06 00:05:04;;;;;;;;;;;;;;;-143.90;100.00;55603.69;2081871;28;19929;-64
2021/12/06 00:06:26;;;;;;;;;;;;;;;-143.90;100.00;55603.69;2080773;28;20427;-64
2021/12/06 00:07:46;;;;;;;;;;;;;;;-143.90;100.00;55643.41;2079204;28;20025;-64
2021/12/06 00:09:10;;;;;;;;;;;;;;;-143.90;100.00;55625.53;2074045;28;19920;-64
2021/12/06 00:10:31;;;;;;;;;;;;;;;-143.90;100.00;55607.66;2080730;28;20027;-64
2021/12/06 00:11:57;;;;;;;;;;;;;;;-143.90;100.00;55583.81;2081380;28;19921;-64
2021/12/06 00:13:20;;;;;;;;;;;;;;;-143.90;100.00;55635.44;2082428;28;19954;-64
2021/12/06 00:14:42;;;;;;;;;;;;;;;-143.90;100.00;55611.63;2081165;28;19928;-64
2021/12/06 00:16:06;;;;;;;;;;;;;;;-143.90;100.00;55623.53;2079485;28;19955;-64
2021/12/06 00:17:27;;;;;;;;;;;;;;;-143.90;100.00;55611.63;2081783;28;21147;-64
2021/12/06 00:18:48;;;;;;;;;;;;;;;-143.90;100.00;55583.81;2080622;28;19920;-64
2021/12/06 00:20:10;;;;;;;;;;;;;;;-143.90;100.00;55623.53;2082390;28;19924;-64
2021/12/06 00:21:31;;;;;;;;;;;;;;;-143.90;100.00;55619.56;2081891;28;20727;-64
2021/12/06 00:22:52;;;;;;;;;;;;;;;-143.90;100.00;55579.84;2082685;28;19921;-64
2021/12/06 00:24:13;;;;;;;;;;;;;;;-143.90;100.00;55601.69;2084086;28;20760;-64
2021/12/06 00:25:35;;;;;;;;;;;;;;;-143.90;100.00;55641.41;2081859;28;20378;-64
2021/12/06 00:26:55;;;;;;;;;;;;;;;-143.90;100.00;55597.72;2081480;28;20285;-64
2021/12/06 00:28:17;;;;;;;;;;;;;;;-143.90;100.00;55627.50;2082454;28;19921;-64
2021/12/06 00:29:38;;;;;;;;;;;;;;;-143.90;100.00;55575.88;2084085;28;19921;-64
2021/12/06 00:30:59;;;;;;;;;;;;;;;-143.90;100.00;55615.59;2083897;28;19932;-64
2021/12/06 00:32:20;;;;;;;;;;;;;;;-143.90;100.00;55603.69;2081909;28;20803;-64
2021/12/06 00:33:41;;;;;;;;;;;;;;;-143.90;100.00;55639.41;2082398;28;19924;-64
2021/12/06 00:35:02;;;;;;;;;;;;;;;-143.90;100.00;55619.56;2072887;28;20091;-64
2021/12/06 00:36:27;;;;;;;;;;;;;;;-143.90;100.00;55635.44;2066780;28;19921;-64
2021/12/06 00:37:57;;;;;;;;;;;;;;;-143.90;100.00;55591.75;2080551;28;19931;-64
2021/12/06 00:39:18;;;;;;;;;;;;;;;-143.90;100.00;55621.53;2084604;28;20817;-64
2021/12/06 00:40:40;;;;;;;;;;;;;;;-143.90;100.00;55607.66;2074780;28;19924;-64
2021/12/06 00:42:01;;;;;;;;;;;;;;;-143.90;100.00;55603.69;2079467;28;20370;-64
2021/12/06 00:43:22;;;;;;;;;;;;;;;-143.90;100.00;55575.88;2081138;28;20565;-64
2021/12/06 00:44:42;;;;;;;;;;;;;;;-143.90;100.00;55611.63;2075482;28;20614;-64
2021/12/06 00:46:03;;;;;;;;;;;;;;;-143.90;100.00;55623.53;2079154;28;19921;-64
2021/12/06 00:47:24;;;;;;;;;;;;;;;-143.90;100.00;55647.38;2082294;28;20281;-64
2021/12/06 00:48:45;;;;;;;;;;;;;;;-143.90;100.00;55607.66;2082825;28;20090;-64
2021/12/06 00:50:06;;;;;;;;;;;;;;;-143.90;100.00;55607.66;2081587;28;20480;-64
2021/12/06 00:51:27;;;;;;;;;;;;;;;-143.90;100.00;55579.84;2073637;28;19969;-64
2021/12/06 00:52:48;;;;;;;;;;;;;;;-143.90;100.00;55595.72;2073221;28;20663;-64
2021/12/06 00:54:13;;;;;;;;;;;;;;;-143.90;100.00;55643.41;2072025;28;19991;-64
2021/12/06 00:55:34;;;;;;;;;;;;;;;-143.90;100.00;55597.72;2079934;28;19929;-64
2021/12/06 00:56:56;;;;;;;;;;;;;;;-143.90;100.00;55595.72;2066578;28;20362;-64
2021/12/06 00:58:16;;;;;;;;;;;;;;;-143.90;100.00;55611.63;2080899;28;19921;-64
2021/12/06 00:59:38;;;;;;;;;;;;;;;-143.90;100.00;55621.53;2082626;28;19920;-64
2021/12/06 01:00:59;;;;;;;;;;;;;;;-143.90;100.00;55579.84;2074395;28;19921;-64
2021/12/06 01:02:20;;;;;;;;;;;;;;;-143.90;100.00;55605.66;2074225;28;19929;-64
2021/12/06 01:03:41;;;;;;;;;;;;;;;-143.90;100.00;55577.84;2072917;28;19990;-64
2021/12/06 01:05:02;;;;;;;;;;;;;;;-143.90;100.00;55579.84;2080644;28;19931;-64
2021/12/06 01:06:23;;;;;;;;;;;;;;;-143.90;100.00;55609.63;2082563;28;19928;-64
2021/12/06 01:07:44;;;;;;;;;;;;;;;-143.90;100.00;55603.69;2082827;28;19921;-64
2021/12/06 01:09:04;;;;;;;;;;;;;;;-143.90;100.00;55583.81;2075115;28;19974;-64
2021/12/06 01:10:26;;;;;;;;;;;;;;;-143.90;100.00;55597.72;2076510;28;19928;-64
2021/12/06 01:11:46;;;;;;;;;;;;;;;-143.90;100.00;55603.69;2080729;28;19975;-64
2021/12/06 01:13:07;;;;;;;;;;;;;;;-143.90;100.00;55575.88;2083336;28;19928;-64
2021/12/06 01:14:28;;;;;;;;;;;;;;;-143.90;100.00;55619.56;2079816;28;20498;-64
2021/12/06 01:15:49;;;;;;;;;;;;;;;-143.90;100.00;55560.00;2073959;28;19928;-64
2021/12/06 01:17:10;;;;;;;;;;;;;;;-143.90;100.00;55629.50;2069612;28;19972;-64
2021/12/06 01:18:32;;;;;;;;;;;;;;;-143.90;100.00;55619.56;2075557;28;20473;-64
2021/12/06 01:19:53;;;;;;;;;;;;;;;-143.90;100.00;55625.53;2073467;28;20804;-64
2021/12/06 01:21:39;;;;;;;;;;;;;;;-143.90;100.00;55653.31;2073343;28;19933;-64
2021/12/06 01:23:06;;;;;;;;;;;;;;;-143.90;100.00;55627.50;2082250;28;19932;-64
2021/12/06 01:24:31;;;;;;;;;;;;;;;-143.90;100.00;55591.75;2072226;28;19921;-64
2021/12/06 01:26:25;;;;;;;;;;;;;;;-143.90;100.00;55603.69;2070575;28;19957;-64
2021/12/06 01:29:13;;;;;;;;;;;;;;;-143.90;100.00;55615.59;2073930;28;19922;-64
2021/12/06 01:30:53;;;;;;;;;;;;;;;-143.90;100.00;55643.41;2081443;28;20001;-64
2021/12/06 01:32:35;;;;;;;;;;;;;;;-143.90;100.00;55579.84;2071648;28;19929;-64
2021/12/06 01:40:21;;;;;;;;;;;;;;;-143.90;100.00;55619.56;2083366;28;19925;-64
2021/12/06 01:41:56;;;;;;;;;;;;;;;-143.90;100.00;55639.41;2074090;28;19925;-64
2021/12/06 01:43:17;;;;;;;;;;;;;;;-143.90;100.00;55591.75;2073350;28;19925;-64
2021/12/06 01:44:43;;;;;;;;;;;;;;;-143.90;100.00;55615.59;2072088;28;19929;-64
2021/12/06 01:46:08;;;;;;;;;;;;;;;-143.90;100.00;55603.69;2072723;28;20067;-64
2021/12/06 01:47:33;;;;;;;;;;;;;;;-143.90;100.00;55603.69;2071884;28;19925;-64
2021/12/06 01:48:55;;;;;;;;;;;;;;;-143.90;100.00;55635.44;2074742;28;19921;-64
2021/12/06 01:50:19;;;;;;;;;;;;;;;-143.90;100.00;55581.84;2081091;28;19921;-64
2021/12/06 01:51:41;;;;;;;;;;;;;;;-143.90;100.00;55619.56;2073928;28;20033;-64
2021/12/06 01:53:02;;;;;;;;;;;;;;;-143.90;100.00;55625.53;2071085;28;19972;-64
2021/12/06 01:54:24;;;;;;;;;;;;;;;-143.90;100.00;55611.63;2072225;28;20340;-64
2021/12/06 01:55:45;;;;;;;;;;;;;;;-143.90;100.00;55615.59;2075908;28;20705;-64
2021/12/06 01:57:06;;;;;;;;;;;;;;;-143.90;100.00;55655.31;2080609;28;19920;-64
2021/12/06 01:58:27;;;;;;;;;;;;;;;-143.90;100.00;55615.59;2073600;28;19925;-64
2021/12/06 01:59:48;;;;;;;;;;;;;;;-143.90;100.00;55611.63;2072038;28;19926;-64
2021/12/06 02:01:10;;;;;;;;;;;;;;;-143.90;100.00;55599.69;2078465;28;19971;-64
2021/12/06 02:02:31;;;;;;;;;;;;;;;-143.90;100.00;55619.56;2073136;28;19930;-64
2021/12/06 02:03:53;;;;;;;;;;;;;;;-143.90;100.00;55587.78;2078603;28;19921;-64
2021/12/06 02:05:14;;;;;;;;;;;;;;;-143.90;100.00;55571.91;2075523;28;19921;-64
2021/12/06 02:06:35;;;;;;;;;;;;;;;-143.90;100.00;55583.81;2073360;28;20444;-64
2021/12/06 02:07:56;;;;;;;;;;;;;;;-143.90;100.00;55591.75;2070693;28;20731;-64
2021/12/06 02:09:17;;;;;;;;;;;;;;;-143.90;100.00;55583.81;2080428;28;19927;-64
2021/12/06 02:10:38;;;;;;;;;;;;;;;-143.90;100.00;55623.53;2076163;28;19937;-64
2021/12/06 02:12:04;;;;;;;;;;;;;;;-143.90;100.00;55593.75;2075605;28;19921;-64
2021/12/06 02:13:24;;;;;;;;;;;;;;;-143.90;100.00;55623.53;2080346;28;19940;-64
2021/12/06 02:16:18;;;;;;;;;;;;;;;-143.90;100.00;55629.50;2081232;28;19964;-64
2021/12/06 02:17:43;;;;;;;;;;;;;;;-143.90;100.00;55609.63;2076261;28;20492;-64
2021/12/06 02:19:05;;;;;;;;;;;;;;;-143.90;100.00;55627.50;2074826;28;19921;-63
2021/12/06 02:20:29;;;;;;;;;;;;;;;-143.90;100.00;55595.72;2072675;28;19971;-64
2021/12/06 02:21:50;;;;;;;;;;;;;;;-143.90;100.00;55599.69;2073559;28;20521;-64
2021/12/06 02:23:10;;;;;;;;;;;;;;;-143.90;100.00;55605.66;2061287;28;19996;-64
2021/12/06 02:24:32;;;;;;;;;;;;;;;-143.90;100.00;55629.50;2061102;28;20428;-64
2021/12/06 02:25:53;;;;;;;;;;;;;;;-143.90;100.00;55591.75;2072175;28;19996;-64
2021/12/06 02:27:14;;;;;;;;;;;;;;;-143.90;100.00;55623.53;2071911;28;19921;-64
2021/12/06 02:28:35;;;;;;;;;;;;;;;-143.90;100.00;55619.56;2064188;28;19925;-64
2021/12/06 02:29:59;;;;;;;;;;;;;;;-143.90;100.00;55611.63;2077478;28;19921;-64
2021/12/06 02:31:22;;;;;;;;;;;;;;;-143.90;100.00;55599.69;2075892;28;19922;-64
2021/12/06 02:32:43;;;;;;;;;;;;;;;-143.90;100.00;55583.81;2070869;28;19962;-64
2021/12/06 02:34:04;;;;;;;;;;;;;;;-143.90;100.00;55591.75;2078940;28;19927;-64
2021/12/06 02:35:25;;;;;;;;;;;;;;;-143.90;100.00;55581.84;2082957;28;19921;-64
2021/12/06 02:36:50;;;;;;;;;;;;;;;-143.90;100.00;55589.78;2072963;28;19960;-64
2021/12/06 02:38:11;;;;;;;;;;;;;;;-143.90;100.00;55591.75;2074093;28;19927;-64
2021/12/06 02:39:33;;;;;;;;;;;;;;;-143.90;100.00;55643.41;2080487;28;19960;-64
2021/12/06 02:40:55;;;;;;;;;;;;;;;-143.90;100.00;55589.78;2072998;28;19929;-64
2021/12/06 02:42:16;;;;;;;;;;;;;;;-143.90;100.00;55607.66;2071151;28;19984;-64
2021/12/06 02:43:38;;;;;;;;;;;;;;;-143.90;100.00;55597.72;2069029;28;19921;-64
2021/12/06 02:44:59;;;;;;;;;;;;;;;-143.90;100.00;55587.78;2079534;28;20574;-64
2021/12/06 02:46:20;;;;;;;;;;;;;;;-143.90;100.00;55615.59;2075461;28;20011;-64
2021/12/06 02:47:43;;;;;;;;;;;;;;;-143.90;100.00;55607.66;2072641;28;19974;-64
2021/12/06 02:49:04;;;;;;;;;;;;;;;-143.90;100.00;55627.50;2067492;28;19925;-64
2021/12/06 02:50:27;;;;;;;;;;;;;;;-143.90;100.00;55579.84;2072490;28;19927;-64
2021/12/06 02:51:50;;;;;;;;;;;;;;;-143.90;100.00;55619.56;2071037;28;19969;-64
2021/12/06 02:53:12;;;;;;;;;;;;;;;-143.90;100.00;55619.56;2076668;28;19928;-64
2021/12/06 02:54:33;;;;;;;;;;;;;;;-143.90;100.00;55561.97;2079225;28;20733;-64
2021/12/06 02:55:57;;;;;;;;;;;;;;;-143.90;100.00;55599.69;2066769;28;20278;-64
2021/12/06 02:57:21;;;;;;;;;;;;;;;-143.90;100.00;55651.34;2072386;28;19925;-64
2021/12/06 03:00:05;;;;;;;;;;;;;;;-143.90;100.00;55571.91;2066815;28;19936;-64
2021/12/06 03:01:31;;;;;;;;;;;;;;;-143.90;100.00;55607.66;2072500;28;19957;-64
2021/12/06 03:02:52;;;;;;;;;;;;;;;-143.90;100.00;55605.66;2069337;28;20012;-64
2021/12/06 03:04:12;;;;;;;;;;;;;;;-143.90;100.00;55597.72;2073152;28;19925;-64
2021/12/06 03:05:33;;;;;;;;;;;;;;;-143.90;100.00;55611.63;2075372;28;19967;-64
2021/12/06 03:06:55;;;;;;;;;;;;;;;-143.90;100.00;55567.94;2080047;28;20765;-63
2021/12/06 03:08:35;;;;;;;;;;;;;;;-143.90;100.00;55597.72;2081138;28;19925;-64
2021/12/06 03:09:57;;;;;;;;;;;;;;;-143.90;100.00;55595.72;2080646;28;19947;-64
2021/12/06 03:11:22;;;;;;;;;;;;;;;-143.90;100.00;55621.53;2076239;28;19959;-66
2021/12/06 03:12:42;;;;;;;;;;;;;;;-143.90;100.00;55619.56;2079338;28;19920;-64
2021/12/06 03:14:04;;;;;;;;;;;;;;;-143.90;100.00;55607.66;2080259;28;20269;-64
2021/12/06 03:15:25;;;;;;;;;;;;;;;-143.90;100.00;55661.25;2074656;28;19963;-64
2021/12/06 03:16:47;;;;;;;;;;;;;;;-143.90;100.00;55623.53;2072530;28;19921;-63
2021/12/06 03:18:08;;;;;;;;;;;;;;;-143.90;100.00;55595.72;2071959;28;20705;-64
2021/12/06 03:19:29;;;;;;;;;;;;;;;-143.90;100.00;55615.59;2071930;28;19924;-63
2021/12/06 03:20:50;;;;;;;;;;;;;;;-143.90;100.00;55591.75;2070291;28;20420;-64
2021/12/06 03:22:11;;;;;;;;;;;;;;;-143.90;100.00;55627.50;2070788;28;19933;-64
2021/12/06 03:23:32;;;;;;;;;;;;;;;-143.90;100.00;55595.72;2072390;28;20471;-64
2021/12/06 03:24:53;;;;;;;;;;;;;;;-143.90;100.00;55625.53;2078286;28;19925;-64
2021/12/06 03:26:14;;;;;;;;;;;;;;;-143.90;100.00;55623.53;2075454;28;20450;-63
2021/12/06 03:27:35;;;;;;;;;;;;;;;-143.90;100.00;55595.72;2070547;28;19988;-64
2021/12/06 03:28:56;;;;;;;;;;;;;;;-143.90;100.00;55627.50;2074229;28;20765;-64
2021/12/06 03:30:18;;;;;;;;;;;;;;;-143.90;100.00;55623.53;2072191;28;19955;-64
2021/12/06 03:31:40;;;;;;;;;;;;;;;-143.90;100.00;55627.50;2078139;28;20435;-64
2021/12/06 03:33:02;;;;;;;;;;;;;;;-143.90;100.00;55647.38;2073213;28;19921;-64
2021/12/06 03:34:26;;;;;;;;;;;;;;;-143.90;100.00;55597.72;2070568;28;19928;-66
2021/12/06 03:35:48;;;;;;;;;;;;;;;-143.90;100.00;55621.53;2074532;28;19987;-66
2021/12/06 03:37:09;;;;;;;;;;;;;;;-143.90;100.00;55597.72;2080030;28;19920;-66
2021/12/06 03:38:31;;;;;;;;;;;;;;;-143.90;100.00;55611.63;2076302;28;19921;-66
2021/12/06 03:39:52;;;;;;;;;;;;;;;-143.90;100.00;55631.47;2071353;28;20319;-66
2021/12/06 03:41:21;;;;;;;;;;;;;;;-143.90;100.00;55619.56;2070688;28;19932;-66
2021/12/06 03:42:43;;;;;;;;;;;;;;;-143.90;100.00;55621.53;2077546;28;19925;-66
2021/12/06 03:44:05;;;;;;;;;;;;;;;-143.90;100.00;55601.69;2080223;28;19927;-66
2021/12/06 03:45:27;;;;;;;;;;;;;;;-143.90;100.00;55607.66;2071459;28;20000;-66
2021/12/06 03:46:50;;;;;;;;;;;;;;;-143.90;100.00;55599.69;2072624;28;20011;-66
2021/12/06 03:48:11;;;;;;;;;;;;;;;-143.90;100.00;55567.94;2076592;28;20027;-66
2021/12/06 03:49:32;;;;;;;;;;;;;;;-143.90;100.00;55619.56;2081792;28;19920;-66
2021/12/06 03:50:53;;;;;;;;;;;;;;;-143.90;100.00;55607.66;2079797;28;19940;-66
2021/12/06 03:52:14;;;;;;;;;;;;;;;-143.90;100.00;55615.59;2082659;28;19928;-66
2021/12/06 03:53:37;;;;;;;;;;;;;;;-143.90;100.00;55659.28;2073283;28;20035;-66
2021/12/06 03:54:58;;;;;;;;;;;;;;;-143.90;100.00;55599.69;2078124;28;19979;-66
2021/12/06 03:56:20;;;;;;;;;;;;;;;-143.90;100.00;55605.66;2073029;28;20516;-66
2021/12/06 03:57:40;;;;;;;;;;;;;;;-143.90;100.00;55631.47;2070227;28;20409;-66
2021/12/06 03:59:04;;;;;;;;;;;;;;;-143.90;100.00;55607.66;2072873;28;19955;-66
2021/12/06 04:00:25;;;;;;;;;;;;;;;-143.90;100.00;55621.53;2079852;28;20312;-66
2021/12/06 04:01:51;;;;;;;;;;;;;;;-143.90;100.00;55591.75;2080683;28;20474;-66
2021/12/06 04:03:23;;;;;;;;;;;;;;;-143.90;100.00;55583.81;2072783;28;19925;-66
2021/12/06 04:04:45;;;;;;;;;;;;;;;-143.90;100.00;55597.72;2073506;28;19950;-66
2021/12/06 04:06:06;;;;;;;;;;;;;;;-143.90;100.00;55579.84;2067492;28;19925;-66
2021/12/06 04:07:28;;;;;;;;;;;;;;;-143.90;100.00;55633.47;2073175;28;19932;-66
2021/12/06 04:08:49;;;;;;;;;;;;;;;-143.90;100.00;55595.72;2078599;28;19929;-66
2021/12/06 04:10:10;;;;;;;;;;;;;;;-143.90;100.00;55623.53;2071117;28;19926;-66
2021/12/06 04:11:32;;;;;;;;;;;;;;;-143.90;100.00;55623.53;2076084;28;19924;-66
2021/12/06 04:12:57;;;;;;;;;;;;;;;-143.90;100.00;55583.81;2075224;28;20003;-66
2021/12/06 04:14:18;;;;;;;;;;;;;;;-143.90;100.00;55583.81;2071021;28;20400;-66
2021/12/06 04:15:40;;;;;;;;;;;;;;;-143.90;100.00;55623.53;2073332;28;20923;-66
2021/12/06 04:17:03;;;;;;;;;;;;;;;-143.90;100.00;55627.50;2072272;28;19921;-66
2021/12/06 04:18:24;;;;;;;;;;;;;;;-143.90;100.00;55627.50;2077808;28;19925;-66
2021/12/06 04:19:46;;;;;;;;;;;;;;;-143.90;100.00;55639.41;2074018;28;19921;-66
2021/12/06 04:21:09;;;;;;;;;;;;;;;-143.90;100.00;55633.47;2078236;28;20567;-66
2021/12/06 04:22:30;;;;;;;;;;;;;;;-143.90;100.00;55625.53;2074469;28;19925;-66
2021/12/06 04:23:51;;;;;;;;;;;;;;;-143.90;100.00;55591.75;2073081;28;19921;-65
2021/12/06 04:25:15;;;;;;;;;;;;;;;-143.90;100.00;55599.69;2072807;28;19932;-65
2021/12/06 04:26:37;;;;;;;;;;;;;;;-143.90;100.00;55595.72;2071656;28;19921;-66
2021/12/06 04:28:03;;;;;;;;;;;;;;;-143.90;100.00;55579.84;2070629;28;19921;-66
2021/12/06 04:29:25;;;;;;;;;;;;;;;-143.90;100.00;55595.72;2080141;28;19921;-65
2021/12/06 04:30:47;;;;;;;;;;;;;;;-143.90;100.00;55585.81;2075354;28;20351;-66
2021/12/06 04:32:08;;;;;;;;;;;;;;;-143.90;100.00;55601.69;2069092;28;19929;-65
2021/12/06 04:33:28;;;;;;;;;;;;;;;-143.90;100.00;55589.78;2078458;28;20482;-66
2021/12/06 04:34:49;;;;;;;;;;;;;;;-143.90;100.00;55611.63;2073960;28;20348;-65
2021/12/06 04:36:10;;;;;;;;;;;;;;;-143.90;100.00;55603.69;2073839;28;19921;-66
2021/12/06 04:37:31;;;;;;;;;;;;;;;-143.90;100.00;55625.53;2081172;28;19924;-66
2021/12/06 04:38:52;;;;;;;;;;;;;;;-143.90;100.00;55615.59;2087968;28;19928;-65
2021/12/06 04:40:13;;;;;;;;;;;;;;;-143.90;100.00;55605.66;2082356;28;20007;-66
2021/12/06 04:41:34;;;;;;;;;;;;;;;-143.90;100.00;55643.41;2077940;28;19978;-66
2021/12/06 04:42:55;;;;;;;;;;;;;;;-143.90;100.00;55595.72;2078642;28;19921;-66
2021/12/06 04:44:16;;;;;;;;;;;;;;;-143.90;100.00;55603.69;2079907;28;20422;-66
2021/12/06 04:45:37;;;;;;;;;;;;;;;-143.90;100.00;55599.69;2082207;28;20035;-66
2021/12/06 04:46:58;;;;;;;;;;;;;;;-143.90;100.00;55615.59;2083367;28;19920;-66
2021/12/06 04:48:19;;;;;;;;;;;;;;;-143.90;100.00;55591.75;2080547;28;20349;-66
2021/12/06 04:49:40;;;;;;;;;;;;;;;-143.90;100.00;55615.59;2080848;28;20019;-66
2021/12/06 04:51:01;;;;;;;;;;;;;;;-143.90;100.00;55619.56;2081166;28;19928;-66
2021/12/06 04:52:22;;;;;;;;;;;;;;;-143.90;100.00;55611.63;2086794;28;19947;-66
2021/12/06 04:53:44;;;;;;;;;;;;;;;-143.90;100.00;55623.53;2075671;28;19921;-66
2021/12/06 04:55:08;;;;;;;;;;;;;;;-143.90;100.00;55603.69;2075562;28;20402;-66
2021/12/06 04:56:37;;;;;;;;;;;;;;;-143.90;100.00;55601.69;2080749;28;19932;-66
2021/12/06 04:57:58;;;;;;;;;;;;;;;-143.90;100.00;55571.91;2078571;28;19920;-66
2021/12/06 04:59:29;;;;;;;;;;;;;;;-143.90;100.00;55595.72;2078535;28;19921;-66
2021/12/06 05:00:59;;;;;;;;;;;;;;;-143.90;100.00;55603.69;2078541;28;19927;-66
2021/12/06 05:02:28;;;;;;;;;;;;;;;-143.90;100.00;55635.44;2085882;28;20031;-66
2021/12/06 05:03:51;;;;;;;;;;;;;;;-143.90;100.00;55619.56;2078236;28;19924;-66
2021/12/06 05:05:17;;;;;;;;;;;;;;;-143.90;100.00;55619.56;2086067;28;19924;-66
2021/12/06 05:06:39;;;;;;;;;;;;;;;-143.90;100.00;55633.47;2073447;28;20483;-66
2021/12/06 05:08:02;;;;;;;;;;;;;;;-143.90;100.00;55609.63;2075662;28;19924;-66
2021/12/06 05:09:30;;;;;;;;;;;;;;;-143.90;100.00;55627.50;2085804;28;19966;-66
2021/12/06 05:10:51;;;;;;;;;;;;;;;-143.90;100.00;55627.50;2084682;28;19917;-66
2021/12/06 05:12:14;;;;;;;;;;;;;;;-143.90;100.00;55601.69;2086511;28;19924;-66
2021/12/06 05:13:36;;;;;;;;;;;;;;;-143.90;100.00;55619.56;2085452;28;19916;-66
2021/12/06 05:14:58;;;;;;;;;;;;;;;-143.90;100.00;55595.72;2078792;28;20102;-66
2021/12/06 05:16:21;;;;;;;;;;;;;;;-143.90;100.00;55611.63;2078796;28;19931;-66
2021/12/06 05:17:43;;;;;;;;;;;;;;;-143.90;100.00;55615.59;2081701;28;19967;-66
2021/12/06 05:19:05;;;;;;;;;;;;;;;-143.90;100.00;55603.69;2079910;28;19916;-66
2021/12/06 05:20:26;;;;;;;;;;;;;;;-143.90;100.00;55613.59;2081103;28;19968;-66
2021/12/06 05:21:47;;;;;;;;;;;;;;;-143.90;100.00;55619.56;2086999;28;19920;-66
2021/12/06 05:23:08;;;;;;;;;;;;;;;-143.90;100.00;55591.75;2082843;28;19920;-66
2021/12/06 05:24:29;;;;;;;;;;;;;;;-143.90;100.00;55605.66;2087424;28;19920;-66
2021/12/06 05:25:50;;;;;;;;;;;;;;;-143.90;100.00;55625.53;2090386;28;20504;-66
2021/12/06 05:27:10;;;;;;;;;;;;;;;-143.90;100.00;55631.47;2089591;28;19917;-66
2021/12/06 05:28:41;;;;;;;;;;;;;;;-143.90;100.00;55619.56;2081107;28;19921;-66
2021/12/06 05:30:04;;;;;;;;;;;;;;;-143.90;100.00;55611.63;2088141;28;20332;-66
2021/12/06 05:31:26;;;;;;;;;;;;;;;-143.90;100.00;55647.38;2084542;28;20319;-66
2021/12/06 05:32:47;;;;;;;;;;;;;;;-143.90;100.00;55619.56;2080933;28;19927;-66
2021/12/06 05:34:14;;;;;;;;;;;;;;;-143.90;100.00;55595.72;2080062;28;19929;-66
2021/12/06 05:35:35;;;;;;;;;;;;;;;-143.90;100.00;55599.69;2081641;28;19921;-66
2021/12/06 05:36:56;;;;;;;;;;;;;;;-143.90;100.00;55641.41;2088239;28;20448;-66
2021/12/06 05:38:16;;;;;;;;;;;;;;;-143.90;100.00;55631.47;2091269;28;19917;-66
2021/12/06 05:39:37;;;;;;;;;;;;;;;-143.90;100.00;55619.56;2084955;28;20019;-66
2021/12/06 05:40:58;;;;;;;;;;;;;;;-143.90;100.00;55641.41;2078135;28;19917;-66
2021/12/06 05:42:19;;;;;;;;;;;;;;;-143.90;100.00;55625.53;2087949;28;20092;-66
2021/12/06 05:43:40;;;;;;;;;;;;;;;-143.90;100.00;55567.94;2089648;28;19948;-66
2021/12/06 05:45:01;;;;;;;;;;;;;;;-143.90;100.00;55663.25;2090761;28;19920;-66
2021/12/06 05:46:21;;;;;;;;;;;;;;;-143.90;100.00;55635.44;2090496;28;19931;-66
2021/12/06 05:47:42;;;;;;;;;;;;;;;-143.90;100.00;55599.69;2082403;28;19963;-66
2021/12/06 05:49:03;;;;;;;;;;;;;;;-143.90;100.00;55607.66;2079042;28;19990;-66
2021/12/06 05:50:24;;;;;;;;;;;;;;;-143.90;100.00;55607.66;2086710;28;19959;-66
2021/12/06 05:51:45;;;;;;;;;;;;;;;-143.90;100.00;55599.69;2090344;28;19921;-66
2021/12/06 05:53:06;;;;;;;;;;;;;;;-143.90;100.00;55641.41;2090070;28;19927;-66
2021/12/06 05:54:28;;;;;;;;;;;;;;;-143.90;100.00;55635.44;2090773;28;19920;-66
2021/12/06 05:55:49;;;;;;;;;;;;;;;-143.90;100.00;55603.69;2089985;28;19967;-66
2021/12/06 05:57:10;;;;;;;;;;;;;;;-143.90;100.00;55623.53;2090150;28;20095;-66
2021/12/06 05:58:32;;;;;;;;;;;;;;;-143.90;100.00;55639.41;2089943;28;20004;-66
2021/12/06 05:59:53;;;;;;;;;;;;;;;-143.90;100.00;55611.63;2089418;28;20019;-66
2021/12/06 06:01:14;;;;;;;;;;;;;;;-143.90;100.00;55635.44;2090222;28;19927;-67
2021/12/06 06:02:35;;;;;;;;;;;;;;;-143.90;100.00;55609.63;2089653;28;19927;-66
2021/12/06 06:04:00;;;;;;;;;;;;;;;-143.90;100.00;55601.69;2090527;28;20038;-66
2021/12/06 06:05:21;;;;;;;;;;;;;;;-143.90;100.00;55627.50;2081722;28;20550;-66
2021/12/06 06:06:42;;;;;;;;;;;;;;;-143.90;100.00;55603.69;2086585;28;19917;-66
2021/12/06 06:08:03;;;;;;;;;;;;;;;-143.90;100.00;55561.97;2089777;28;19917;-67
2021/12/06 06:09:24;;;;;;;;;;;;;;;-143.90;100.00;55599.69;2088427;28;20405;-66
2021/12/06 06:10:47;;;;;;;;;;;;;;;-143.90;100.00;55623.53;2090524;28;20873;-66
2021/12/06 06:12:07;;;;;;;;;;;;;;;-143.90;100.00;55599.69;2091537;28;20416;-66
2021/12/06 06:13:28;;;;;;;;;;;;;;;-143.90;100.00;55607.66;2089251;28;19916;-66
2021/12/06 06:14:49;;;;;;;;;;;;;;;-143.90;100.00;55599.69;2088056;28;20026;-66
2021/12/06 06:16:10;;;;;;;;;;;;;;;-143.90;100.00;55603.69;2089972;28;19979;-66
2021/12/06 06:17:39;;;;;;;;;;;;;;;-143.90;100.00;55575.88;2089231;28;19916;-66
2021/12/06 06:19:00;;;;;;;;;;;;;;;-143.90;100.00;55605.66;2088918;28;20058;-66
2021/12/06 06:20:25;;;;;;;;;;;;;;;-143.90;100.00;55615.59;2089332;28;19917;-66
2021/12/06 06:21:46;;;;;;;;;;;;;;;-143.90;100.00;55631.47;2089666;28;19967;-66
2021/12/06 06:23:07;;;;;;;;;;;;;;;-143.90;100.00;55623.53;2090371;28;20372;-66
2021/12/06 06:24:27;;;;;;;;;;;;;;;-143.90;100.00;55603.69;2084632;28;20406;-66
2021/12/06 06:25:49;;;;;;;;;;;;;;;-143.90;100.00;55599.69;2087654;28;19924;-66
2021/12/06 06:27:09;;;;;;;;;;;;;;;-143.90;100.00;55623.53;2088610;28;19924;-66
2021/12/06 06:28:30;;;;;;;;;;;;;;;-143.90;100.00;55611.63;2089939;28;20020;-66
2021/12/06 06:29:51;;;;;;;;;;;;;;;-143.90;100.00;55593.75;2089601;28;19927;-66
2021/12/06 06:31:12;;;;;;;;;;;;;;;-143.90;100.00;55623.53;2088642;28;19923;-66
2021/12/06 06:32:32;;;;;;;;;;;;;;;-143.90;100.00;55647.38;2090463;28;19932;-67
2021/12/06 06:33:53;;;;;;;;;;;;;;;-143.90;100.00;55621.53;2090834;28;19920;-66
2021/12/06 06:35:14;;;;;;;;;;;;;;;-143.90;100.00;55599.69;2083712;28;19924;-66
2021/12/06 06:36:35;;;;;;;;;;;;;;;-143.90;100.00;55609.63;2087210;28;19921;-66
2021/12/06 06:37:58;;;;;;;;;;;;;;;-143.90;100.00;55621.53;2090385;28;21484;-67
2021/12/06 06:39:19;;;;;;;;;;;;;;;-143.90;100.00;55609.63;2089067;28;19921;-67
2021/12/06 06:40:40;;;;;;;;;;;;;;;-143.90;100.00;55587.78;2090446;28;19921;-67
2021/12/06 06:42:01;;;;;;;;;;;;;;;-143.90;100.00;55607.66;2088560;28;19931;-66
2021/12/06 06:43:22;;;;;;;;;;;;;;;-143.90;100.00;55623.53;2087048;28;19917;-66
2021/12/06 06:44:42;;;;;;;;;;;;;;;-143.90;100.00;55611.63;2090135;28;19928;-66
2021/12/06 06:46:03;;;;;;;;;;;;;;;-143.90;100.00;55605.66;2090391;28;19960;-67
2021/12/06 06:47:24;;;;;;;;;;;;;;;-143.90;100.00;55605.66;2088500;28;19928;-66
2021/12/06 06:48:45;;;;;;;;;;;;;;;-143.90;100.00;55627.50;2090079;28;19916;-67
2021/12/06 06:50:06;;;;;;;;;;;;;;;-143.90;100.00;55595.72;2087772;28;20014;-66
2021/12/06 06:51:28;;;;;;;;;;;;;;;-143.90;100.00;55595.72;2088009;28;19939;-66
2021/12/06 06:52:49;;;;;;;;;;;;;;;-143.90;100.00;55583.81;2087569;28;20002;-66
2021/12/06 06:54:10;;;;;;;;;;;;;;;-143.90;100.00;55621.53;2089504;28;19921;-66
2021/12/06 06:55:30;;;;;;;;;;;;;;;-143.90;100.00;55599.69;2088642;28;19920;-66
2021/12/06 06:56:51;;;;;;;;;;;;;;;-143.90;100.00;55611.63;2088911;28;20397;-66
2021/12/06 06:58:12;;;;;;;;;;;;;;;-143.90;100.00;55595.72;2089906;28;19952;-66
2021/12/06 06:59:32;;;;;;;;;;;;;;;-143.90;100.00;55623.53;2082099;28;19917;-66
2021/12/06 07:00:53;;;;;;;;;;;;;;;-143.90;100.00;55607.66;2088355;28;19920;-66
2021/12/06 07:02:14;;;;;;;;;;;;;;;-143.90;100.00;55577.84;2089629;28;20434;-67
2021/12/06 07:03:35;;;;;;;;;;;;;;;-143.90;100.00;55599.69;2089341;28;19928;-66